• Join FlightAware (Why Join?)
  • Login
  • US Flag 
05:44PM EDT


 

Airport Tracker/Info


-or-


 

Live Flight TrackerFlight Track Log ✈ KAP927 ✈ 04-May-2013 ✈ KALB - KBOS

Flight Track Log - Related Links

Times and Time Zones

All times are in EDT time to prevent confusion due to time zone crossing. See the KAP927 flight status page for this flight to view local times or setup timezone preferences in your user account.

Time Position Orientation Groundspeed Altitude Reporting Facility
EDT Latitude Longitude Course Direction KTS MPH feet Rate Location/Type
08:38AM 42.7494 -73.7436 93° East 117 135 1,700  Level Boston Center
08:39AM 42.7478 -73.6983 93° East 120 138 2,500 780 Climbing Boston Center
08:40AM 42.7439 -73.6586 98° East 118 136 3,300 720 Climbing Boston Center
08:41AM 42.7383 -73.6106 99° East 125 144 4,000 720 Climbing Boston Center
08:42AM 42.7303 -73.5678 104° East 122 140 4,800 720 Climbing Boston Center
08:43AM 42.7267 -73.5225 96° East 118 136 5,500 660 Climbing Boston Center
08:44AM 42.7208 -73.4772 100° East 122 140 6,200 660 Climbing Boston Center
08:45AM 42.7108 -73.4289 106° East 121 139 6,900 600 Climbing Boston Center
08:46AM 42.7050 -73.3781 99° East 131 151 7,600 300 Climbing Boston Center
08:47AM 42.6992 -73.3244 98° East 142 163 7,600  Level Boston Center
08:48AM 42.6911 -73.2733 102° East 160 184 7,600  Level Boston Center
08:49AM 42.6833 -73.2225 102° East 160 184 7,600 -60 Level Boston Center
08:50AM 42.6753 -73.1603 100° East 155 178 7,500 -60 Descending Boston Center
08:51AM 42.6694 -73.1064 98° East 155 178 7,500  Level Boston Center
08:52AM 42.6614 -73.0442 100° East 155 178 7,600  Climbing Boston Center
08:53AM 42.6533 -72.9961 103° East 145 167 7,600  Level Boston Center
08:54AM 42.6494 -72.9397 95° East 145 167 7,600  Level Boston Center
08:55AM 42.6392 -72.8719 102° East 145 167 7,600  Level Boston Center
08:56AM 42.6292 -72.8014 101° East 145 167 7,600  Level Boston Center
08:57AM 42.6208 -72.7447 101° East 145 167 7,600 -60 Level Boston Center
08:58AM 42.6147 -72.6883 98° East 145 167 7,500 -60 Descending Boston Center
08:59AM 42.6067 -72.6319 101° East 145 167 7,500  Level Boston Center
09:00AM 42.5983 -72.5756 101° East 145 167 7,500  Level Boston Center
09:01AM 42.5900 -72.5192 101° East 145 167 7,500  Level Boston Center
09:02AM 42.5817 -72.4625 101° East 145 167 7,500  Level Boston Center
09:03AM 42.5733 -72.4092 102° East 145 167 7,500  Level Boston Center
09:04AM 42.5650 -72.3528 101° East 145 167 7,500  Level Boston Center
09:05AM 42.5586 -72.2964 99° East 145 167 7,500  Level Boston Center
09:06AM 42.5483 -72.2542 108° East 145 167 7,500  Level Boston Center
09:07AM 42.5397 -72.1864 100° East 150 173 7,500  Level Boston Center
09:08AM 42.5314 -72.1244 100° East 145 167 7,500  Level Boston Center
09:09AM 42.5250 -72.0767 100° East 145 167 7,500  Level Boston Center
09:10AM 42.5164 -72.0147 101° East 151 174 7,500 -60 Level Boston Center
09:11AM 42.5078 -71.9642 103° East 146 168 7,400  Descending Boston Center
09:12AM 42.5014 -71.9050 98° East 146 168 7,500  Climbing Boston Center
09:13AM 42.4928 -71.8572 104° East 146 168 7,500 -300 Level Boston Center
09:14AM 42.4903 -71.7925 93° East 146 168 6,900 -600 Descending Boston Center
09:15AM 42.4878 -71.7419 94° East 156 180 6,400 -660 Descending Boston Center
09:16AM 42.4875 -71.6686 90° East 158 182 5,600 -720 Descending Boston Center
09:17AM 42.4850 -71.6125 93° East 158 182 5,000 900 Descending Boston Center
09:18AM 42.4844 -71.5447 91° East 158 182 7,500 -480 Climbing Boston Center
09:19AM 42.4881 -71.4969 84° East 153 176 4,100 -1,920 Descending Boston Center
09:20AM 42.4981 -71.4319 78° East 153 176 3,700 -300 Descending Boston Center
09:21AM 42.5058 -71.3783 79° East 158 182 3,500 -180 Descending Boston Center
09:22AM 42.5178 -71.3078 77° East 153 176 3,400 -60 Descending Boston Center
09:23AM 42.5167 -71.2667 92° East 150 173 3,400 -120 Level KA90
09:24AM 42.5000 -71.2000 109° East 168 193 3,200 -300 Descending KA90
09:25AM 42.4833 -71.1667 124° Southeast 162 186 2,800 -540 Descending KA90
09:26AM 42.4500 -71.1167 132° Southeast 157 181 2,200 -660 Descending KA90
09:27AM 42.4167 -71.0667 132° Southeast 159 183 1,500 -780 Descending KA90
09:28AM 42.3833 -71.0500 160° South 160 184 700 -600 Descending KA90
09:29AM 42.3500 -71.0333 160° South 122 140 400 -300 Descending KA90
09:31AM 42.3500 -71.0000 270° West  Level FlightAware Approximate
09:38AM 42.3630 -71.0064 270° West  Level Estimated
09:39AM 42.3630 -71.0064 270° West  Level Estimated